Domov               UVHVVR             MKGP            O straneh              
ZDRAVSTVENO VARSTVO RASTLIN
  MREŽA AGROMET. POSTAJ
 ► PROGNOSTIČNA OBVESTILA
AGROMETEOROLOŠKI PODATKI -
ARSO
OBVLADOVANJE TVEGANJ ZARADI
NEUGODNIH VREMENSKIH RAZMER
  ► NARAVNE NESREČE
  ► SUŠA/MOČA
  ► NAMAKANJE
  ► ŽLED (gozdarstvo)
KARTOGRAFSKI PRIKAZI
SPLETNE POVEZAVE
PROJEKTI IN PUBLIKACIJE

AGROMETEOROLOŠKA MREŽA: VREMENSKE POSTAJE IN FENOLOŠKA OPAZOVANJA

Pregled podatkov za lokacijo Drašiči, meteorološka postaja 38741

Pregled senzorjev na lokaciji

ID Ime Zadnja
vrednost
Datum
zadnje
spremembe
Tip
senzorja
1865 Temperatura 2 m ( °C) 20,9 °C 19.8.2017 20:00 50YA
1866 Relativna vlaga 2 m (% RH) 58,24 % RH 19.8.2017 20:00 50YA
1867 Omočenost lista (U) 0 U 19.8.2017 20:00 A730WET
1868 Padavine 0.2 mm (mm) 0 mm 19.8.2017 20:00 Rain-O-Matic

Pregled podatkov zadnjih 24 ur

Zap.
št.
Datum in čas Drašiči
Omočenost
lista
Padavine
0.2
mm
Relativna
vlaga
2
m
Temperatura
2
m
0 19.8.2017 19:00 0 0 58,24 20,9
1 19.8.2017 18:30 0 0 59,88 21,15
2 19.8.2017 18:00 1 0 56,97 21,93
3 19.8.2017 17:30 0 0 53,92 22,83
4 19.8.2017 17:00 0 0 52,43 23,37
5 19.8.2017 16:30 0 0 50,82 24
6 19.8.2017 16:00 0 0 49,57 24,37
7 19.8.2017 15:30 0 0 49,52 24,98
8 19.8.2017 15:00 0 0 49,74 25,35
9 19.8.2017 14:30 0 0 47,52 26,45
10 19.8.2017 14:00 0 0 46,62 27,18
11 19.8.2017 13:30 0 0 43,64 27,91
12 19.8.2017 13:00 0 0 43,13 28,33
13 19.8.2017 12:30 0 0 36,12 30,84
14 19.8.2017 12:00 0 0 34,87 31,36
15 19.8.2017 11:30 0 0 37,53 31,82
16 19.8.2017 11:00 0 0 40,29 30,45
17 19.8.2017 10:30 0 0 41,22 29,87
18 19.8.2017 10:00 0 0 41,9 28,23
19 19.8.2017 09:30 0 0 43,76 27,69
20 19.8.2017 09:00 0 0 50,77 25,67
21 19.8.2017 08:30 0 0 51,72 25,1
22 19.8.2017 08:00 0 0 58,63 23,05
23 19.8.2017 07:30 0 0 62,05 22,03
24 19.8.2017 07:00 0 0 64,74 21,22
25 19.8.2017 06:30 0 0 72,31 18,78
26 19.8.2017 06:00 0 0 76,36 17,29
27 19.8.2017 05:30 1 0 77,95 16,85
28 19.8.2017 05:00 1 0 78,61 16,65
29 19.8.2017 04:30 0 0 74,14 17,26
30 19.8.2017 04:00 0 0 74,87 17,24
31 19.8.2017 03:30 1 0 78,1 16,85
32 19.8.2017 03:00 1 0 76,34 17,48
33 19.8.2017 02:30 0 0 71,5 18,17
34 19.8.2017 02:00 0 0 73,53 17,97
35 19.8.2017 01:30 0 0 73,11 18,46
36 19.8.2017 01:00 0 0 67,3 19,12
37 19.8.2017 00:30 0 0 60,68 20,32
38 19.8.2017 00:00 0 0 58,53 20,66
39 18.8.2017 23:30 0 0 57,14 21,1
40 18.8.2017 23:00 0 0 56,07 21,34
41 18.8.2017 22:30 0 0 58,93 21,2
42 18.8.2017 22:00 0 0 59,05 21,61
43 18.8.2017 21:30 0 0 53,09 22,76
44 18.8.2017 21:00 0 0 50,23 23,91
45 18.8.2017 20:30 0 0 51,06 23,91
© 2011 Ministrstvo za kmetijstvo, gozdarstvo in prehrano. Vse pravice pridržane.